createdAt,value
2018-09-21T00:00:44.006Z,8.70
2018-09-21T00:03:12.727Z,8.90
2018-09-21T00:05:41.289Z,8.70
2018-09-21T00:08:09.853Z,8.83
2018-09-21T00:10:38.375Z,8.80
2018-09-21T00:13:06.914Z,9.10
2018-09-21T00:15:35.475Z,8.63
2018-09-21T00:18:04.039Z,8.60
2018-09-21T00:20:32.565Z,8.37
2018-09-21T00:23:01.091Z,8.40
2018-09-21T00:25:29.655Z,9.23
2018-09-21T00:27:58.171Z,9.10
2018-09-21T00:30:26.742Z,9.97
2018-09-21T00:32:55.361Z,9.03
2018-09-21T00:35:23.958Z,9.00
2018-09-21T00:37:52.538Z,8.77
2018-09-21T00:40:21.140Z,8.20
2018-09-21T00:42:49.695Z,9.17
2018-09-21T00:45:18.207Z,8.60
2018-09-21T00:47:46.787Z,9.27
2018-09-21T00:50:15.324Z,9.03
2018-09-21T00:52:43.965Z,8.57
2018-09-21T00:55:12.460Z,8.90
2018-09-21T00:57:41.005Z,9.27
2018-09-21T01:00:09.618Z,9.47
2018-09-21T01:02:38.141Z,9.50
2018-09-21T01:05:06.771Z,8.33
2018-09-21T01:07:35.262Z,8.93
2018-09-21T01:10:03.862Z,9.43
2018-09-21T01:12:32.378Z,9.20
2018-09-21T01:15:00.930Z,9.50
2018-09-21T01:17:30.113Z,9.20
2018-09-21T01:19:58.646Z,9.17
2018-09-21T01:22:27.268Z,9.10
2018-09-21T01:24:55.777Z,9.00
2018-09-21T01:27:24.291Z,8.93
2018-09-21T01:29:52.868Z,9.50
2018-09-21T01:32:21.454Z,8.47
2018-09-21T01:34:49.978Z,9.37
2018-09-21T01:37:18.574Z,9.40
2018-09-21T01:39:47.408Z,9.30
2018-09-21T01:42:15.994Z,9.07
2018-09-21T01:44:44.523Z,9.10
2018-09-21T01:47:13.132Z,9.27
2018-09-21T01:49:41.703Z,9.30
2018-09-21T01:52:10.326Z,8.90
2018-09-21T01:54:38.853Z,10.40
2018-09-21T01:57:07.423Z,8.53
2018-09-21T01:59:36.040Z,10.33
2018-09-21T02:02:04.600Z,8.50
2018-09-21T02:04:38.563Z,9.23
2018-09-21T02:07:08.678Z,8.90
2018-09-21T02:09:37.554Z,9.70
2018-09-21T02:12:06.187Z,8.70
2018-09-21T02:14:35.083Z,9.30
2018-09-21T02:17:03.840Z,9.33
2018-09-21T02:19:32.450Z,9.40
2018-09-21T02:22:01.265Z,9.00
2018-09-21T02:24:29.839Z,9.07
2018-09-21T02:26:58.384Z,9.10
2018-09-21T02:29:26.980Z,9.10
2018-09-21T02:31:55.500Z,9.70
2018-09-21T02:34:24.084Z,9.13
2018-09-21T02:36:52.609Z,9.17
2018-09-21T02:39:21.182Z,9.50
2018-09-21T02:41:49.865Z,9.33
2018-09-21T02:44:18.414Z,10.30
2018-09-21T02:46:46.966Z,8.80
2018-09-21T02:49:15.499Z,10.00
2018-09-21T02:51:44.032Z,9.20
2018-09-21T02:54:12.603Z,10.70
2018-09-21T02:56:41.947Z,9.47
2018-09-21T02:59:10.518Z,9.47
2018-09-21T03:01:39.088Z,10.30
2018-09-21T03:04:07.639Z,9.47
2018-09-21T03:06:36.197Z,9.60
2018-09-21T03:09:07.374Z,9.53
2018-09-21T03:11:36.179Z,10.10
2018-09-21T03:14:04.715Z,9.87
2018-09-21T03:16:33.266Z,9.30
2018-09-21T03:19:01.818Z,8.97
2018-09-21T03:21:30.374Z,10.13
2018-09-21T03:23:58.980Z,9.47
2018-09-21T03:26:27.649Z,10.17
2018-09-21T03:28:56.455Z,9.60
2018-09-21T03:31:24.983Z,8.77
2018-09-21T03:33:53.543Z,10.20
2018-09-21T03:36:22.108Z,9.77
2018-09-21T03:38:50.659Z,9.60
2018-09-21T03:41:19.206Z,9.77
2018-09-21T03:43:47.860Z,9.60
2018-09-21T03:46:16.418Z,10.20
2018-09-21T03:48:45.043Z,10.40
2018-09-21T03:51:13.629Z,10.80
2018-09-21T03:53:42.226Z,10.57
2018-09-21T03:56:10.977Z,11.13
2018-09-21T03:58:39.552Z,11.07
2018-09-21T04:01:08.200Z,10.67
2018-09-21T04:03:36.785Z,10.50
2018-09-21T04:06:05.385Z,10.17
2018-09-21T04:08:33.982Z,10.50
2018-09-21T04:11:02.535Z,9.73
2018-09-21T04:13:31.148Z,11.00
2018-09-21T04:15:59.654Z,10.13
2018-09-21T04:18:28.215Z,9.90
2018-09-21T04:20:56.796Z,9.80
2018-09-21T04:23:25.397Z,9.93
2018-09-21T04:25:54.287Z,10.57
2018-09-21T04:28:22.886Z,9.13
2018-09-21T04:30:51.370Z,10.70
2018-09-21T04:33:19.901Z,11.10
2018-09-21T04:35:48.457Z,10.60
2018-09-21T04:38:17.018Z,9.60
2018-09-21T04:40:45.584Z,11.40
2018-09-21T04:43:14.182Z,10.43
2018-09-21T04:45:42.810Z,10.37
2018-09-21T04:48:11.336Z,9.80
2018-09-21T04:50:40.001Z,10.23
2018-09-21T04:53:08.583Z,10.50
2018-09-21T04:55:37.129Z,10.60
2018-09-21T04:58:05.734Z,10.40
2018-09-21T05:00:34.265Z,10.90
2018-09-21T05:03:02.855Z,10.90
2018-09-21T05:05:31.502Z,10.33
2018-09-21T05:08:00.871Z,10.17
2018-09-21T05:10:29.474Z,10.40
2018-09-21T05:12:58.065Z,10.63
2018-09-21T05:15:26.615Z,10.43
2018-09-21T05:17:55.136Z,10.23
2018-09-21T05:20:23.705Z,10.37
2018-09-21T05:22:52.294Z,10.67
2018-09-21T05:25:21.854Z,10.40
2018-09-21T05:27:51.441Z,10.60
2018-09-21T05:30:19.999Z,10.70
2018-09-21T05:33:06.807Z,8.87
2018-09-21T05:35:35.604Z,10.13
2018-09-21T05:38:04.160Z,9.60
2018-09-21T05:40:32.787Z,11.63
2018-09-21T05:43:01.374Z,10.93
2018-09-21T05:45:30.311Z,10.10
2018-09-21T05:51:13.127Z,9.30
2018-09-21T05:53:41.711Z,10.03
2018-09-21T05:56:10.333Z,10.37
2018-09-21T05:58:38.910Z,9.90
2018-09-21T06:01:07.541Z,9.97
2018-09-21T06:03:36.199Z,9.83
2018-09-21T06:06:04.731Z,9.93
2018-09-21T06:08:33.333Z,9.40
2018-09-21T06:11:01.931Z,9.20
2018-09-21T06:13:30.566Z,10.60
2018-09-21T06:15:59.139Z,10.40
2018-09-21T06:18:27.762Z,9.73
2018-09-21T06:20:56.339Z,9.37
2018-09-21T06:23:24.895Z,10.03
2018-09-21T06:25:53.466Z,9.80
2018-09-21T06:28:22.806Z,8.80
2018-09-21T06:30:51.331Z,9.83
2018-09-21T06:33:19.854Z,8.90
2018-09-21T06:35:48.417Z,9.30
2018-09-21T06:38:23.288Z,9.27
2018-09-21T06:40:52.456Z,9.47
2018-09-21T06:43:22.092Z,9.43
2018-09-21T06:45:51.157Z,9.60
2018-09-21T06:48:20.543Z,9.07
2018-09-21T06:50:51.404Z,8.80
2018-09-21T06:53:19.970Z,8.57
2018-09-21T06:55:48.548Z,8.83
2018-09-21T06:58:17.249Z,9.27
2018-09-21T07:00:45.823Z,8.47
2018-09-21T07:03:14.406Z,9.10
2018-09-21T07:05:42.970Z,8.23
2018-09-21T07:08:11.591Z,9.70
2018-09-21T07:10:42.639Z,8.43
2018-09-21T07:13:11.327Z,8.63
2018-09-21T07:15:40.257Z,8.80
2018-09-21T07:18:09.131Z,8.17
2018-09-21T07:20:40.336Z,8.07
2018-09-21T07:23:09.711Z,7.73
2018-09-21T07:25:38.792Z,8.43
2018-09-21T07:28:07.526Z,7.60
2018-09-21T07:30:36.213Z,8.17
2018-09-21T07:33:06.633Z,8.00
2018-09-21T07:35:35.301Z,7.27
2018-09-21T07:38:03.975Z,7.60
2018-09-21T07:40:32.681Z,7.50
2018-09-21T07:43:01.908Z,7.67
2018-09-21T07:45:30.992Z,7.27
2018-09-21T07:47:59.642Z,7.60
2018-09-21T07:50:28.322Z,7.20
2018-09-21T07:53:06.712Z,7.50
2018-09-21T07:55:35.380Z,7.00
2018-09-21T07:58:04.036Z,7.60
2018-09-21T08:00:33.348Z,7.50
2018-09-21T08:03:01.985Z,6.83
2018-09-21T08:05:33.661Z,7.23
2018-09-21T08:08:03.509Z,6.90
2018-09-21T08:10:32.198Z,7.40
2018-09-21T08:13:01.399Z,7.60
2018-09-21T08:15:30.575Z,7.20
2018-09-21T08:17:59.109Z,7.97
2018-09-21T08:20:28.397Z,6.87
2018-09-21T08:22:57.104Z,6.60
2018-09-21T08:25:25.697Z,7.43
2018-09-21T08:27:54.333Z,7.50
2018-09-21T08:30:22.953Z,7.03
2018-09-21T08:32:51.663Z,7.10
2018-09-21T08:35:20.281Z,6.23
2018-09-21T08:37:48.850Z,7.20
2018-09-21T08:40:17.481Z,6.30
2018-09-21T08:42:46.319Z,7.17
2018-09-21T08:45:15.003Z,8.27
2018-09-21T08:47:43.615Z,6.50
2018-09-21T08:50:12.195Z,7.20
2018-09-21T08:52:40.822Z,7.47
2018-09-21T08:55:09.475Z,7.60
2018-09-21T08:57:38.138Z,7.43
2018-09-21T09:00:06.856Z,7.97
2018-09-21T09:02:35.436Z,7.43
2018-09-21T09:05:04.081Z,6.67
2018-09-21T09:07:32.622Z,7.90
2018-09-21T09:10:01.157Z,7.33
2018-09-21T09:12:29.850Z,6.73
2018-09-21T09:14:58.420Z,6.60
2018-09-21T09:17:26.989Z,7.30
2018-09-21T09:19:55.598Z,7.30
2018-09-21T09:22:24.219Z,7.10
2018-09-21T09:24:52.876Z,7.27
2018-09-21T09:27:21.452Z,6.60
2018-09-21T09:29:50.042Z,7.00
2018-09-21T09:32:18.567Z,6.33
2018-09-21T09:34:47.175Z,7.23
2018-09-21T09:37:15.791Z,6.80
2018-09-21T09:39:44.358Z,6.13
2018-09-21T09:42:12.902Z,6.13
2018-09-21T09:44:41.460Z,7.10
2018-09-21T09:47:10.008Z,6.90
2018-09-21T09:49:38.584Z,6.63
2018-09-21T09:52:07.527Z,6.50
2018-09-21T09:54:36.085Z,6.70
2018-09-21T09:57:04.640Z,8.00
2018-09-21T09:59:33.273Z,7.00
2018-09-21T10:02:01.909Z,6.53
2018-09-21T10:04:30.696Z,7.23
2018-09-21T10:06:59.253Z,6.57
2018-09-21T10:09:27.741Z,5.83
2018-09-21T10:11:56.549Z,6.60
2018-09-21T10:14:25.141Z,6.50
2018-09-21T10:16:53.714Z,6.90
2018-09-21T10:19:22.312Z,6.70
2018-09-21T10:21:50.838Z,7.30
2018-09-21T10:24:19.383Z,6.73
2018-09-21T10:26:47.986Z,7.30
2018-09-21T10:29:16.703Z,7.57
2018-09-21T10:31:45.396Z,7.67
2018-09-21T10:34:15.552Z,6.63
2018-09-21T10:36:44.156Z,6.70
2018-09-21T10:39:12.752Z,7.03
2018-09-21T10:44:15.711Z,7.20
2018-09-21T10:46:44.318Z,6.50
2018-09-21T10:49:13.010Z,7.43
2018-09-21T10:51:41.577Z,6.90
2018-09-21T10:54:10.187Z,6.90
2018-09-21T10:56:38.718Z,6.53
2018-09-21T10:59:07.287Z,5.43
2018-09-21T11:01:36.015Z,6.93
2018-09-21T11:04:05.052Z,6.20
2018-09-21T11:06:33.628Z,6.40
2018-09-21T11:09:02.308Z,7.23
2018-09-21T11:11:30.948Z,7.77
2018-09-21T11:13:59.557Z,7.03
2018-09-21T11:16:28.124Z,6.83
2018-09-21T11:18:56.786Z,7.87
2018-09-21T11:21:25.531Z,7.50
2018-09-21T11:23:54.184Z,7.40
2018-09-21T11:26:22.846Z,6.80
2018-09-21T11:28:51.462Z,7.00
2018-09-21T11:31:20.263Z,7.10
2018-09-21T11:33:48.868Z,7.80
2018-09-21T11:36:17.513Z,6.83
2018-09-21T11:38:46.051Z,6.57
2018-09-21T11:41:14.616Z,7.73
2018-09-21T11:43:43.204Z,6.40
2018-09-21T11:46:11.882Z,7.13
2018-09-21T11:48:40.429Z,5.90
2018-09-21T11:51:09.115Z,6.20
2018-09-21T11:53:37.713Z,7.23
2018-09-21T11:56:06.332Z,6.67
2018-09-21T11:58:34.881Z,7.00
2018-09-21T12:01:03.513Z,6.53
2018-09-21T12:03:32.111Z,7.60
2018-09-21T12:06:00.774Z,6.50
2018-09-21T12:08:29.394Z,7.17
2018-09-21T12:10:58.020Z,6.70
2018-09-21T12:13:26.608Z,6.60
2018-09-21T12:15:55.216Z,7.27
2018-09-21T12:18:23.793Z,8.23
2018-09-21T12:20:52.366Z,6.60
2018-09-21T12:23:20.946Z,6.70
2018-09-21T12:25:49.539Z,6.87
2018-09-21T12:28:18.169Z,7.27
2018-09-21T12:30:46.778Z,6.40
2018-09-21T12:33:15.345Z,8.20
2018-09-21T12:35:44.358Z,7.37
2018-09-21T12:38:12.965Z,7.30
2018-09-21T12:40:41.587Z,5.83
2018-09-21T12:43:10.185Z,6.47
2018-09-21T12:45:38.727Z,8.20
2018-09-21T12:48:07.327Z,7.37
2018-09-21T12:50:35.963Z,8.37
2018-09-21T12:53:04.559Z,6.97
2018-09-21T12:55:33.118Z,6.83
2018-09-21T12:58:02.973Z,7.20
2018-09-21T13:00:37.341Z,8.43
2018-09-21T13:03:08.107Z,6.30
2018-09-21T13:05:36.783Z,7.17
2018-09-21T13:08:05.460Z,7.40
2018-09-21T13:10:34.022Z,7.17
2018-09-21T13:13:02.573Z,6.90
2018-09-21T13:15:31.119Z,6.87
2018-09-21T13:17:59.701Z,7.43
2018-09-21T13:20:28.251Z,7.30
2018-09-21T13:22:56.849Z,6.47
2018-09-21T13:25:25.438Z,6.90
2018-09-21T13:27:53.910Z,6.83
2018-09-21T13:30:22.493Z,6.00
2018-09-21T13:32:51.058Z,6.63
2018-09-21T13:35:19.599Z,6.53
2018-09-21T13:37:48.164Z,6.57
2018-09-21T13:40:16.727Z,7.00
2018-09-21T13:42:45.330Z,7.33
2018-09-21T13:45:13.861Z,7.47
2018-09-21T13:47:42.429Z,6.53
2018-09-21T13:50:11.006Z,6.50
2018-09-21T13:52:39.581Z,6.13
2018-09-21T13:55:08.254Z,5.73
2018-09-21T13:57:36.936Z,5.73
2018-09-21T14:00:05.830Z,5.17
2018-09-21T14:02:34.637Z,5.70
2018-09-21T14:05:03.210Z,7.20
2018-09-21T14:07:31.762Z,5.90
2018-09-21T14:10:00.300Z,5.80
2018-09-21T14:12:28.910Z,6.10
2018-09-21T14:14:57.502Z,6.13
2018-09-21T14:17:26.070Z,5.60
2018-09-21T14:19:54.669Z,6.20
2018-09-21T14:22:23.258Z,5.87
2018-09-21T14:24:51.957Z,5.77
2018-09-21T14:27:20.577Z,5.70
2018-09-21T14:29:49.180Z,5.70
2018-09-21T14:32:17.730Z,6.37
2018-09-21T14:34:46.925Z,5.90
2018-09-21T14:37:15.433Z,6.67
2018-09-21T14:39:43.968Z,6.80
2018-09-21T14:42:16.718Z,6.23
2018-09-21T14:44:45.659Z,5.63
2018-09-21T14:47:14.190Z,5.90
2018-09-21T14:49:42.778Z,6.03
2018-09-21T14:52:11.486Z,6.17
2018-09-21T14:54:40.117Z,6.47
2018-09-21T14:57:08.716Z,5.43
2018-09-21T14:59:37.240Z,5.60
2018-09-21T15:02:06.178Z,5.80
2018-09-21T15:04:34.746Z,5.10
2018-09-21T15:07:03.297Z,5.30
2018-09-21T15:09:31.943Z,5.20
2018-09-21T15:12:00.517Z,5.80
2018-09-21T15:14:28.997Z,4.90
2018-09-21T15:16:57.653Z,5.43
2018-09-21T15:19:26.349Z,4.93
2018-09-21T15:21:55.030Z,5.03
2018-09-21T15:24:23.635Z,5.60
2018-09-21T15:26:52.166Z,5.13
2018-09-21T15:29:21.038Z,5.07
2018-09-21T15:31:49.551Z,5.80
2018-09-21T15:34:18.108Z,6.43
2018-09-21T15:36:46.717Z,5.47
2018-09-21T15:39:15.273Z,5.40
2018-09-21T15:41:43.857Z,4.77
2018-09-21T15:44:12.460Z,4.30
2018-09-21T15:46:41.010Z,3.50
2018-09-21T15:49:09.633Z,3.57
2018-09-21T15:51:38.317Z,3.47
2018-09-21T15:54:06.937Z,4.30
2018-09-21T15:56:35.421Z,2.60
2018-09-21T15:59:03.996Z,2.60
2018-09-21T16:01:32.517Z,1.73
2018-09-21T16:04:01.093Z,1.17
2018-09-21T16:06:33.177Z,1.20
2018-09-21T16:09:03.103Z,0.87
2018-09-21T16:11:31.627Z,0.80
2018-09-21T16:14:00.195Z,0.60
2018-09-21T16:16:28.747Z,0.67
2018-09-21T16:18:57.250Z,0.90
2018-09-21T16:21:25.821Z,0.73
2018-09-21T16:23:54.346Z,0.80
2018-09-21T16:26:22.992Z,0.80
2018-09-21T16:28:51.594Z,0.77
2018-09-21T16:31:20.217Z,0.80
2018-09-21T16:33:48.968Z,0.90
2018-09-21T16:36:17.497Z,0.90
2018-09-21T16:38:46.064Z,1.10
2018-09-21T16:41:14.830Z,1.23
2018-09-21T16:43:43.509Z,0.83
2018-09-21T16:46:12.101Z,0.90
2018-09-21T16:48:40.649Z,1.10
2018-09-21T16:51:09.263Z,1.00
2018-09-21T16:53:37.846Z,0.70
2018-09-21T16:56:06.632Z,0.87
2018-09-21T16:58:35.199Z,1.40
2018-09-21T17:01:03.823Z,0.97
2018-09-21T17:03:32.398Z,0.83
2018-09-21T17:06:00.927Z,0.90
2018-09-21T17:08:29.434Z,0.80
2018-09-21T17:10:58.135Z,0.83
2018-09-21T17:13:26.753Z,0.90
2018-09-21T17:15:55.365Z,1.00
2018-09-21T17:18:23.916Z,1.00
2018-09-21T17:20:53.264Z,1.10
2018-09-21T17:23:21.831Z,1.40
2018-09-21T17:25:50.449Z,1.20
2018-09-21T17:28:19.128Z,1.10
2018-09-21T17:30:47.719Z,1.20
2018-09-21T17:33:16.512Z,1.47
2018-09-21T17:35:45.018Z,1.10
2018-09-21T17:38:14.577Z,1.20
2018-09-21T17:40:43.258Z,1.63
2018-09-21T17:43:11.974Z,1.47
2018-09-21T17:45:40.661Z,1.10
2018-09-21T17:48:09.313Z,1.60
2018-09-21T17:50:37.872Z,1.93
2018-09-21T17:53:06.749Z,1.20
2018-09-21T17:55:35.271Z,1.40
2018-09-21T17:58:03.827Z,1.73
2018-09-21T18:00:32.468Z,1.83
2018-09-21T18:03:03.309Z,2.20
2018-09-21T18:05:32.049Z,1.53
2018-09-21T18:08:01.592Z,1.90
2018-09-21T18:10:30.285Z,1.73
2018-09-21T18:13:00.051Z,7.30
2018-09-21T18:15:28.591Z,1.80
2018-09-21T18:17:57.172Z,1.90
2018-09-21T18:20:25.783Z,1.90
2018-09-21T18:22:56.051Z,1.97
2018-09-21T18:25:26.732Z,1.70
2018-09-21T18:27:55.427Z,2.17
2018-09-21T18:30:24.281Z,2.53
2018-09-21T18:32:53.079Z,1.60
2018-09-21T18:35:21.742Z,2.67
2018-09-21T18:37:50.417Z,1.90
2018-09-21T18:40:19.117Z,2.23
2018-09-21T18:42:47.763Z,2.13
2018-09-21T18:45:17.009Z,1.90
2018-09-21T18:47:45.669Z,2.33
2018-09-21T18:50:14.397Z,2.27
2018-09-21T18:52:42.929Z,2.60
2018-09-21T18:55:11.601Z,1.90
2018-09-21T18:57:40.175Z,1.97
2018-09-21T19:00:08.829Z,1.63
2018-09-21T19:02:37.483Z,1.70
2018-09-21T19:05:06.066Z,1.90
2018-09-21T19:07:34.747Z,2.30
2018-09-21T19:10:03.674Z,1.90
2018-09-21T19:12:33.466Z,1.90
2018-09-21T19:15:03.880Z,1.83
2018-09-21T19:17:32.590Z,2.20
2018-09-21T19:20:01.098Z,1.70
2018-09-21T19:22:29.630Z,1.80
2018-09-21T19:24:58.252Z,1.53
2018-09-21T19:27:27.878Z,1.40
2018-09-21T19:29:57.540Z,1.93
2018-09-21T19:32:26.314Z,1.30
2018-09-21T19:34:54.832Z,1.57
2018-09-21T19:37:23.397Z,2.13
2018-09-21T19:39:51.950Z,1.27
2018-09-21T19:42:20.678Z,1.60
2018-09-21T19:44:49.289Z,2.00
2018-09-21T19:47:17.839Z,2.00
2018-09-21T19:49:46.430Z,2.33
2018-09-21T19:52:15.141Z,1.23
2018-09-21T19:54:43.764Z,1.73
2018-09-21T19:57:12.607Z,1.57
2018-09-21T19:59:41.127Z,1.40
2018-09-21T20:02:09.777Z,1.90
2018-09-21T20:04:38.302Z,2.13
2018-09-21T20:07:06.940Z,1.50
2018-09-21T20:09:35.463Z,1.90
2018-09-21T20:12:04.088Z,1.77
2018-09-21T20:14:32.650Z,1.67
2018-09-21T20:17:01.208Z,1.50
2018-09-21T20:19:29.770Z,1.57
2018-09-21T20:21:59.645Z,1.53
2018-09-21T20:24:28.182Z,1.40
2018-09-21T20:26:56.770Z,1.60
2018-09-21T20:29:25.336Z,1.50
2018-09-21T20:31:59.276Z,1.70
2018-09-21T20:34:27.798Z,1.43
2018-09-21T20:36:56.391Z,1.70
2018-09-21T20:39:24.949Z,1.70
2018-09-21T20:41:53.522Z,1.50
2018-09-21T20:44:22.038Z,1.17
2018-09-21T20:46:50.653Z,1.60
2018-09-21T20:49:19.234Z,1.33
2018-09-21T20:51:47.786Z,1.57
2018-09-21T20:54:16.313Z,1.30
2018-09-21T20:56:44.887Z,1.27
2018-09-21T20:59:13.470Z,1.43
2018-09-21T21:01:42.135Z,1.20
2018-09-21T21:04:10.671Z,1.10
2018-09-21T21:07:42.183Z,1.00
2018-09-21T21:10:10.766Z,0.90
2018-09-21T21:12:39.376Z,1.27
2018-09-21T21:15:08.049Z,1.20
2018-09-21T21:17:36.659Z,1.13
2018-09-21T21:20:05.466Z,1.03
2018-09-21T21:22:35.208Z,1.27
2018-09-21T21:25:03.802Z,1.37
2018-09-21T21:27:33.145Z,1.40
2018-09-21T21:30:01.715Z,1.83
2018-09-21T21:32:30.268Z,1.20
2018-09-21T21:34:58.852Z,1.17
2018-09-21T21:37:27.426Z,0.97
2018-09-21T21:39:56.244Z,1.57
2018-09-21T21:42:24.806Z,1.47
2018-09-21T21:44:53.382Z,1.37
2018-09-21T21:47:22.141Z,1.50
2018-09-21T21:49:50.952Z,1.33
2018-09-21T21:52:19.733Z,1.13
2018-09-21T21:54:48.316Z,1.47
2018-09-21T21:57:16.876Z,1.37
2018-09-21T21:59:45.815Z,1.17
2018-09-21T22:02:14.373Z,1.50
2018-09-21T22:04:43.163Z,1.77
2018-09-21T22:07:12.676Z,1.10
2018-09-21T22:09:41.671Z,0.97
2018-09-21T22:12:15.496Z,1.63
2018-09-21T22:14:44.119Z,1.17
2018-09-21T22:17:12.710Z,1.27
2018-09-21T22:19:41.954Z,1.73
2018-09-21T22:22:10.543Z,1.80
2018-09-21T22:24:39.114Z,1.10
2018-09-21T22:27:07.711Z,1.33
2018-09-21T22:29:36.283Z,0.93
2018-09-21T22:32:05.184Z,1.10
2018-09-21T22:34:33.751Z,1.33
2018-09-21T22:37:02.301Z,1.50
2018-09-21T22:39:30.891Z,1.97
2018-09-21T22:41:59.487Z,1.17
2018-09-21T22:44:28.046Z,1.43
2018-09-21T22:46:56.576Z,0.90
2018-09-21T22:49:25.788Z,1.27
2018-09-21T22:51:54.654Z,1.60
2018-09-21T22:54:23.218Z,1.53
2018-09-21T22:56:51.834Z,1.30
2018-09-21T22:59:20.382Z,1.27
2018-09-21T23:01:48.997Z,1.00
2018-09-21T23:04:17.545Z,1.37
2018-09-21T23:06:46.064Z,1.70
2018-09-21T23:09:14.649Z,1.40
2018-09-21T23:11:45.585Z,1.00
2018-09-21T23:14:14.187Z,1.47
2018-09-21T23:16:42.707Z,1.10
2018-09-21T23:19:11.289Z,1.30
2018-09-21T23:21:39.935Z,1.40
2018-09-21T23:24:08.559Z,1.27
2018-09-21T23:26:37.074Z,1.03
2018-09-21T23:29:05.704Z,1.30
2018-09-21T23:31:34.338Z,1.17
2018-09-21T23:34:02.878Z,1.60
2018-09-21T23:36:31.422Z,1.60
2018-09-21T23:39:00.419Z,1.60
2018-09-21T23:41:29.287Z,1.40
2018-09-21T23:43:57.815Z,1.57
2018-09-21T23:46:26.438Z,1.63
2018-09-21T23:48:55.004Z,1.50
2018-09-21T23:51:23.526Z,1.47
2018-09-21T23:53:52.119Z,1.60
2018-09-21T23:56:20.647Z,1.73
2018-09-21T23:58:49.380Z,1.90
